sensor_id;sensor_type;location;lat;lon;timestamp;P1;durP1;ratioP1;P2;durP2;ratioP2
70073;SDS011;57445;51.058;3.698;2022-08-19T00:01:03;36.22;;;27.65;;
70073;SDS011;57445;51.058;3.698;2022-08-19T00:03:37;34.88;;;26.95;;
70073;SDS011;57445;51.058;3.698;2022-08-19T00:06:04;34.45;;;26.73;;
70073;SDS011;57445;51.058;3.698;2022-08-19T00:08:32;34.83;;;26.15;;
70073;SDS011;57445;51.058;3.698;2022-08-19T00:11:00;34.45;;;26.52;;
70073;SDS011;57445;51.058;3.698;2022-08-19T00:13:32;36.58;;;27.30;;
70073;SDS011;57445;51.058;3.698;2022-08-19T00:16:01;37.83;;;28.45;;
70073;SDS011;57445;51.058;3.698;2022-08-19T00:18:29;36.35;;;28.90;;
70073;SDS011;57445;51.058;3.698;2022-08-19T00:21:00;40.60;;;30.17;;
70073;SDS011;57445;51.058;3.698;2022-08-19T00:23:28;39.97;;;30.05;;
70073;SDS011;57445;51.058;3.698;2022-08-19T00:28:32;38.08;;;28.73;;
70073;SDS011;57445;51.058;3.698;2022-08-19T00:31:06;33.92;;;28.05;;
70073;SDS011;57445;51.058;3.698;2022-08-19T00:33:39;37.42;;;28.63;;
70073;SDS011;57445;51.058;3.698;2022-08-19T00:36:13;37.00;;;27.10;;
70073;SDS011;57445;51.058;3.698;2022-08-19T00:38:40;38.75;;;29.35;;
70073;SDS011;57445;51.058;3.698;2022-08-19T00:41:14;37.15;;;27.58;;
70073;SDS011;57445;51.058;3.698;2022-08-19T00:43:56;38.47;;;28.92;;
70073;SDS011;57445;51.058;3.698;2022-08-19T00:46:26;39.38;;;28.48;;
70073;SDS011;57445;51.058;3.698;2022-08-19T00:48:55;38.20;;;28.13;;
70073;SDS011;57445;51.058;3.698;2022-08-19T00:51:25;39.63;;;27.98;;
70073;SDS011;57445;51.058;3.698;2022-08-19T00:53:59;35.40;;;27.92;;
70073;SDS011;57445;51.058;3.698;2022-08-19T00:56:28;36.97;;;27.52;;
70073;SDS011;57445;51.058;3.698;2022-08-19T00:59:02;40.03;;;28.33;;
70073;SDS011;57445;51.058;3.698;2022-08-19T01:01:34;36.08;;;26.83;;
70073;SDS011;57445;51.058;3.698;2022-08-19T01:04:07;36.90;;;26.45;;
70073;SDS011;57445;51.058;3.698;2022-08-19T01:06:41;37.22;;;28.63;;
70073;SDS011;57445;51.058;3.698;2022-08-19T01:09:09;34.28;;;25.67;;
70073;SDS011;57445;51.058;3.698;2022-08-19T01:11:38;31.67;;;23.67;;
70073;SDS011;57445;51.058;3.698;2022-08-19T01:14:08;31.75;;;24.63;;
70073;SDS011;57445;51.058;3.698;2022-08-19T01:16:42;31.20;;;23.30;;
70073;SDS011;57445;51.058;3.698;2022-08-19T01:19:18;30.23;;;22.23;;
70073;SDS011;57445;51.058;3.698;2022-08-19T01:22:00;32.05;;;22.25;;
70073;SDS011;57445;51.058;3.698;2022-08-19T01:27:03;31.85;;;22.58;;
70073;SDS011;57445;51.058;3.698;2022-08-19T01:29:31;30.98;;;22.80;;
70073;SDS011;57445;51.058;3.698;2022-08-19T01:32:00;28.02;;;22.27;;
70073;SDS011;57445;51.058;3.698;2022-08-19T01:34:32;30.38;;;22.08;;
70073;SDS011;57445;51.058;3.698;2022-08-19T01:37:06;30.17;;;23.55;;
70073;SDS011;57445;51.058;3.698;2022-08-19T01:39:38;30.27;;;24.73;;
70073;SDS011;57445;51.058;3.698;2022-08-19T01:42:11;30.63;;;22.85;;
70073;SDS011;57445;51.058;3.698;2022-08-19T01:44:39;30.75;;;23.23;;
70073;SDS011;57445;51.058;3.698;2022-08-19T01:47:07;31.63;;;23.27;;
70073;SDS011;57445;51.058;3.698;2022-08-19T01:49:36;31.15;;;22.30;;
70073;SDS011;57445;51.058;3.698;2022-08-19T01:52:05;30.60;;;22.80;;
70073;SDS011;57445;51.058;3.698;2022-08-19T01:54:33;28.42;;;21.75;;
70073;SDS011;57445;51.058;3.698;2022-08-19T01:57:04;28.38;;;21.35;;
70073;SDS011;57445;51.058;3.698;2022-08-19T01:59:40;30.30;;;21.73;;
70073;SDS011;57445;51.058;3.698;2022-08-19T02:02:08;30.77;;;21.60;;
70073;SDS011;57445;51.058;3.698;2022-08-19T02:04:40;30.20;;;21.40;;
70073;SDS011;57445;51.058;3.698;2022-08-19T02:07:13;29.42;;;19.88;;
70073;SDS011;57445;51.058;3.698;2022-08-19T02:09:40;28.40;;;20.42;;
70073;SDS011;57445;51.058;3.698;2022-08-19T02:12:09;28.92;;;19.30;;
70073;SDS011;57445;51.058;3.698;2022-08-19T02:14:37;29.05;;;19.42;;
70073;SDS011;57445;51.058;3.698;2022-08-19T02:17:09;30.45;;;19.08;;
70073;SDS011;57445;51.058;3.698;2022-08-19T02:19:41;25.25;;;17.70;;
70073;SDS011;57445;51.058;3.698;2022-08-19T02:22:14;26.60;;;19.08;;
70073;SDS011;57445;51.058;3.698;2022-08-19T02:24:41;26.73;;;18.02;;
70073;SDS011;57445;51.058;3.698;2022-08-19T02:27:15;25.95;;;18.60;;
70073;SDS011;57445;51.058;3.698;2022-08-19T02:29:48;27.05;;;17.83;;
70073;SDS011;57445;51.058;3.698;2022-08-19T02:32:17;26.67;;;17.30;;
70073;SDS011;57445;51.058;3.698;2022-08-19T02:34:49;25.08;;;18.15;;
70073;SDS011;57445;51.058;3.698;2022-08-19T02:37:17;28.67;;;18.50;;
70073;SDS011;57445;51.058;3.698;2022-08-19T02:40:03;28.15;;;18.30;;
70073;SDS011;57445;51.058;3.698;2022-08-19T02:42:32;28.15;;;17.42;;
70073;SDS011;57445;51.058;3.698;2022-08-19T02:45:00;25.05;;;17.85;;
70073;SDS011;57445;51.058;3.698;2022-08-19T02:47:27;30.23;;;19.17;;
70073;SDS011;57445;51.058;3.698;2022-08-19T02:49:55;28.75;;;18.13;;
70073;SDS011;57445;51.058;3.698;2022-08-19T02:52:22;26.67;;;17.95;;
70073;SDS011;57445;51.058;3.698;2022-08-19T02:54:51;28.45;;;19.02;;
70073;SDS011;57445;51.058;3.698;2022-08-19T02:57:19;26.63;;;18.20;;
70073;SDS011;57445;51.058;3.698;2022-08-19T02:59:53;28.13;;;18.58;;
70073;SDS011;57445;51.058;3.698;2022-08-19T03:02:21;30.05;;;19.17;;
70073;SDS011;57445;51.058;3.698;2022-08-19T03:04:48;29.02;;;19.27;;
70073;SDS011;57445;51.058;3.698;2022-08-19T03:07:21;29.13;;;18.70;;
70073;SDS011;57445;51.058;3.698;2022-08-19T03:09:53;28.00;;;18.85;;
70073;SDS011;57445;51.058;3.698;2022-08-19T03:12:21;27.90;;;19.85;;
70073;SDS011;57445;51.058;3.698;2022-08-19T03:14:48;25.50;;;18.20;;
70073;SDS011;57445;51.058;3.698;2022-08-19T03:17:18;25.85;;;18.40;;
70073;SDS011;57445;51.058;3.698;2022-08-19T03:19:45;26.83;;;17.95;;
70073;SDS011;57445;51.058;3.698;2022-08-19T03:22:13;27.70;;;18.83;;
70073;SDS011;57445;51.058;3.698;2022-08-19T03:24:41;26.27;;;17.95;;
70073;SDS011;57445;51.058;3.698;2022-08-19T03:27:10;25.48;;;17.08;;
70073;SDS011;57445;51.058;3.698;2022-08-19T03:29:39;24.60;;;17.38;;
70073;SDS011;57445;51.058;3.698;2022-08-19T03:32:07;28.02;;;17.50;;
70073;SDS011;57445;51.058;3.698;2022-08-19T03:34:36;24.20;;;17.05;;
70073;SDS011;57445;51.058;3.698;2022-08-19T03:37:11;25.90;;;17.15;;
70073;SDS011;57445;51.058;3.698;2022-08-19T03:39:43;23.08;;;17.05;;
70073;SDS011;57445;51.058;3.698;2022-08-19T03:42:11;21.75;;;15.10;;
70073;SDS011;57445;51.058;3.698;2022-08-19T03:44:39;24.35;;;16.15;;
70073;SDS011;57445;51.058;3.698;2022-08-19T03:47:08;21.40;;;15.02;;
70073;SDS011;57445;51.058;3.698;2022-08-19T03:49:39;23.73;;;15.55;;
70073;SDS011;57445;51.058;3.698;2022-08-19T03:52:07;20.20;;;14.45;;
70073;SDS011;57445;51.058;3.698;2022-08-19T03:54:39;22.10;;;15.40;;
70073;SDS011;57445;51.058;3.698;2022-08-19T03:57:12;25.80;;;14.38;;
70073;SDS011;57445;51.058;3.698;2022-08-19T03:59:39;21.17;;;13.70;;
70073;SDS011;57445;51.058;3.698;2022-08-19T04:02:08;24.15;;;15.18;;
70073;SDS011;57445;51.058;3.698;2022-08-19T04:04:44;21.60;;;14.80;;
70073;SDS011;57445;51.058;3.698;2022-08-19T04:07:13;24.73;;;15.32;;
70073;SDS011;57445;51.058;3.698;2022-08-19T04:09:41;19.98;;;14.10;;
70073;SDS011;57445;51.058;3.698;2022-08-19T04:12:09;21.40;;;15.05;;
70073;SDS011;57445;51.058;3.698;2022-08-19T04:14:37;27.77;;;15.10;;
70073;SDS011;57445;51.058;3.698;2022-08-19T04:17:09;21.08;;;13.55;;
70073;SDS011;57445;51.058;3.698;2022-08-19T04:19:38;22.92;;;14.45;;
70073;SDS011;57445;51.058;3.698;2022-08-19T04:22:08;22.08;;;14.68;;
70073;SDS011;57445;51.058;3.698;2022-08-19T04:24:36;21.20;;;14.15;;
70073;SDS011;57445;51.058;3.698;2022-08-19T04:27:09;24.15;;;14.63;;
70073;SDS011;57445;51.058;3.698;2022-08-19T04:29:36;23.27;;;15.27;;
70073;SDS011;57445;51.058;3.698;2022-08-19T04:32:09;19.58;;;12.90;;
70073;SDS011;57445;51.058;3.698;2022-08-19T04:34:42;22.45;;;13.18;;
70073;SDS011;57445;51.058;3.698;2022-08-19T04:37:11;20.75;;;13.85;;
70073;SDS011;57445;51.058;3.698;2022-08-19T04:39:39;22.35;;;14.38;;
70073;SDS011;57445;51.058;3.698;2022-08-19T04:42:27;25.42;;;14.48;;
70073;SDS011;57445;51.058;3.698;2022-08-19T04:45:07;22.77;;;14.27;;
70073;SDS011;57445;51.058;3.698;2022-08-19T04:47:37;22.98;;;13.55;;
70073;SDS011;57445;51.058;3.698;2022-08-19T04:50:05;21.63;;;14.13;;
70073;SDS011;57445;51.058;3.698;2022-08-19T04:52:36;19.80;;;12.73;;
70073;SDS011;57445;51.058;3.698;2022-08-19T04:55:05;23.15;;;13.93;;
70073;SDS011;57445;51.058;3.698;2022-08-19T04:57:33;16.95;;;12.15;;
70073;SDS011;57445;51.058;3.698;2022-08-19T05:00:06;23.58;;;13.57;;
70073;SDS011;57445;51.058;3.698;2022-08-19T05:02:35;22.55;;;13.73;;
70073;SDS011;57445;51.058;3.698;2022-08-19T05:05:08;19.95;;;12.77;;
70073;SDS011;57445;51.058;3.698;2022-08-19T05:07:37;21.42;;;13.15;;
70073;SDS011;57445;51.058;3.698;2022-08-19T05:10:06;16.80;;;11.80;;
70073;SDS011;57445;51.058;3.698;2022-08-19T05:12:39;19.48;;;12.45;;
70073;SDS011;57445;51.058;3.698;2022-08-19T05:15:07;19.25;;;12.45;;
70073;SDS011;57445;51.058;3.698;2022-08-19T05:17:36;20.20;;;12.20;;
70073;SDS011;57445;51.058;3.698;2022-08-19T05:20:03;19.15;;;12.00;;
70073;SDS011;57445;51.058;3.698;2022-08-19T05:22:55;20.65;;;12.30;;
70073;SDS011;57445;51.058;3.698;2022-08-19T05:25:22;20.33;;;13.00;;
70073;SDS011;57445;51.058;3.698;2022-08-19T05:27:51;17.92;;;11.02;;
70073;SDS011;57445;51.058;3.698;2022-08-19T05:30:19;18.63;;;10.73;;
70073;SDS011;57445;51.058;3.698;2022-08-19T05:32:51;21.15;;;11.10;;
70073;SDS011;57445;51.058;3.698;2022-08-19T05:35:21;16.92;;;10.73;;
70073;SDS011;57445;51.058;3.698;2022-08-19T05:37:55;18.38;;;11.57;;
70073;SDS011;57445;51.058;3.698;2022-08-19T05:40:23;16.40;;;10.38;;
70073;SDS011;57445;51.058;3.698;2022-08-19T05:42:51;17.95;;;10.68;;
70073;SDS011;57445;51.058;3.698;2022-08-19T05:45:19;17.70;;;10.82;;
70073;SDS011;57445;51.058;3.698;2022-08-19T05:47:52;16.33;;;10.43;;
70073;SDS011;57445;51.058;3.698;2022-08-19T05:50:24;21.38;;;11.23;;
70073;SDS011;57445;51.058;3.698;2022-08-19T05:52:58;19.58;;;11.55;;
70073;SDS011;57445;51.058;3.698;2022-08-19T05:55:26;17.52;;;11.73;;
70073;SDS011;57445;51.058;3.698;2022-08-19T05:57:54;21.20;;;11.70;;
70073;SDS011;57445;51.058;3.698;2022-08-19T06:00:22;21.35;;;11.52;;
70073;SDS011;57445;51.058;3.698;2022-08-19T06:02:50;21.05;;;11.50;;
70073;SDS011;57445;51.058;3.698;2022-08-19T06:05:18;18.17;;;12.10;;
70073;SDS011;57445;51.058;3.698;2022-08-19T06:07:50;18.95;;;12.05;;
70073;SDS011;57445;51.058;3.698;2022-08-19T06:10:19;19.92;;;12.45;;
70073;SDS011;57445;51.058;3.698;2022-08-19T06:12:52;17.85;;;11.35;;
70073;SDS011;57445;51.058;3.698;2022-08-19T06:15:30;20.45;;;12.93;;
70073;SDS011;57445;51.058;3.698;2022-08-19T06:17:57;19.90;;;12.43;;
70073;SDS011;57445;51.058;3.698;2022-08-19T06:20:26;20.45;;;13.27;;
70073;SDS011;57445;51.058;3.698;2022-08-19T06:22:54;21.40;;;12.93;;
70073;SDS011;57445;51.058;3.698;2022-08-19T06:25:23;17.00;;;11.45;;
70073;SDS011;57445;51.058;3.698;2022-08-19T06:27:51;18.73;;;11.02;;
70073;SDS011;57445;51.058;3.698;2022-08-19T06:30:19;15.82;;;10.65;;
70073;SDS011;57445;51.058;3.698;2022-08-19T06:32:51;14.00;;;10.43;;
70073;SDS011;57445;51.058;3.698;2022-08-19T06:35:24;17.50;;;11.27;;
70073;SDS011;57445;51.058;3.698;2022-08-19T06:37:57;14.25;;;9.80;;
70073;SDS011;57445;51.058;3.698;2022-08-19T06:40:31;16.75;;;9.85;;
70073;SDS011;57445;51.058;3.698;2022-08-19T06:42:58;16.40;;;9.85;;
70073;SDS011;57445;51.058;3.698;2022-08-19T06:45:27;14.25;;;8.20;;
70073;SDS011;57445;51.058;3.698;2022-08-19T06:48:00;14.35;;;8.48;;
70073;SDS011;57445;51.058;3.698;2022-08-19T06:50:30;12.57;;;8.35;;
70073;SDS011;57445;51.058;3.698;2022-08-19T06:52:59;13.30;;;8.35;;
70073;SDS011;57445;51.058;3.698;2022-08-19T06:55:27;15.18;;;8.95;;
70073;SDS011;57445;51.058;3.698;2022-08-19T06:58:02;14.35;;;9.00;;
70073;SDS011;57445;51.058;3.698;2022-08-19T07:00:36;15.27;;;8.55;;
70073;SDS011;57445;51.058;3.698;2022-08-19T07:03:05;13.10;;;8.02;;
70073;SDS011;57445;51.058;3.698;2022-08-19T07:05:33;14.05;;;9.40;;
70073;SDS011;57445;51.058;3.698;2022-08-19T07:08:05;11.68;;;8.18;;
70073;SDS011;57445;51.058;3.698;2022-08-19T07:10:41;12.48;;;8.23;;
70073;SDS011;57445;51.058;3.698;2022-08-19T07:13:16;14.23;;;9.35;;
70073;SDS011;57445;51.058;3.698;2022-08-19T07:15:48;15.23;;;9.40;;
70073;SDS011;57445;51.058;3.698;2022-08-19T07:18:17;14.55;;;9.23;;
70073;SDS011;57445;51.058;3.698;2022-08-19T07:20:46;16.40;;;10.02;;
70073;SDS011;57445;51.058;3.698;2022-08-19T07:23:14;16.48;;;9.75;;
70073;SDS011;57445;51.058;3.698;2022-08-19T07:25:46;13.73;;;10.38;;
70073;SDS011;57445;51.058;3.698;2022-08-19T07:28:20;17.13;;;11.40;;
70073;SDS011;57445;51.058;3.698;2022-08-19T07:30:48;12.63;;;9.68;;
70073;SDS011;57445;51.058;3.698;2022-08-19T07:33:16;12.25;;;9.88;;
70073;SDS011;57445;51.058;3.698;2022-08-19T07:35:44;15.10;;;11.10;;
70073;SDS011;57445;51.058;3.698;2022-08-19T07:38:12;13.18;;;9.88;;
70073;SDS011;57445;51.058;3.698;2022-08-19T07:40:40;16.05;;;10.50;;
70073;SDS011;57445;51.058;3.698;2022-08-19T07:43:09;15.80;;;11.20;;
70073;SDS011;57445;51.058;3.698;2022-08-19T07:45:42;14.82;;;10.63;;
70073;SDS011;57445;51.058;3.698;2022-08-19T07:48:14;15.43;;;11.02;;
70073;SDS011;57445;51.058;3.698;2022-08-19T07:50:43;16.08;;;10.90;;
70073;SDS011;57445;51.058;3.698;2022-08-19T07:53:12;16.05;;;11.32;;
70073;SDS011;57445;51.058;3.698;2022-08-19T07:55:46;15.02;;;10.55;;
70073;SDS011;57445;51.058;3.698;2022-08-19T07:58:20;13.75;;;10.27;;
70073;SDS011;57445;51.058;3.698;2022-08-19T08:00:50;15.38;;;11.02;;
70073;SDS011;57445;51.058;3.698;2022-08-19T08:03:23;15.68;;;10.43;;
70073;SDS011;57445;51.058;3.698;2022-08-19T08:06:14;14.20;;;10.48;;
70073;SDS011;57445;51.058;3.698;2022-08-19T08:09:04;14.32;;;10.30;;
70073;SDS011;57445;51.058;3.698;2022-08-19T08:11:38;15.32;;;11.48;;
70073;SDS011;57445;51.058;3.698;2022-08-19T08:14:08;13.30;;;10.23;;
70073;SDS011;57445;51.058;3.698;2022-08-19T08:16:37;15.07;;;9.95;;
70073;SDS011;57445;51.058;3.698;2022-08-19T08:19:07;15.18;;;10.48;;
70073;SDS011;57445;51.058;3.698;2022-08-19T08:21:35;16.48;;;10.68;;
70073;SDS011;57445;51.058;3.698;2022-08-19T08:24:03;14.48;;;10.30;;
70073;SDS011;57445;51.058;3.698;2022-08-19T08:26:31;14.68;;;10.93;;
70073;SDS011;57445;51.058;3.698;2022-08-19T08:28:59;15.60;;;11.43;;
70073;SDS011;57445;51.058;3.698;2022-08-19T08:31:27;13.32;;;10.75;;
70073;SDS011;57445;51.058;3.698;2022-08-19T08:33:56;15.30;;;10.68;;
70073;SDS011;57445;51.058;3.698;2022-08-19T08:36:24;14.98;;;10.50;;
70073;SDS011;57445;51.058;3.698;2022-08-19T08:38:51;14.43;;;10.93;;
70073;SDS011;57445;51.058;3.698;2022-08-19T08:41:21;14.05;;;10.65;;
70073;SDS011;57445;51.058;3.698;2022-08-19T08:43:59;13.48;;;10.30;;
70073;SDS011;57445;51.058;3.698;2022-08-19T08:46:30;13.30;;;9.63;;
70073;SDS011;57445;51.058;3.698;2022-08-19T08:49:15;13.75;;;9.68;;
70073;SDS011;57445;51.058;3.698;2022-08-19T08:51:58;12.40;;;9.95;;
70073;SDS011;57445;51.058;3.698;2022-08-19T08:54:34;13.52;;;9.63;;
70073;SDS011;57445;51.058;3.698;2022-08-19T08:57:09;11.10;;;8.00;;
70073;SDS011;57445;51.058;3.698;2022-08-19T08:59:42;12.45;;;8.50;;
70073;SDS011;57445;51.058;3.698;2022-08-19T09:02:19;12.15;;;8.93;;
70073;SDS011;57445;51.058;3.698;2022-08-19T09:04:48;15.27;;;8.07;;
70073;SDS011;57445;51.058;3.698;2022-08-19T09:07:19;10.93;;;8.32;;
70073;SDS011;57445;51.058;3.698;2022-08-19T09:10:02;9.73;;;7.35;;
70073;SDS011;57445;51.058;3.698;2022-08-19T09:12:42;10.02;;;7.40;;
70073;SDS011;57445;51.058;3.698;2022-08-19T09:15:35;9.07;;;6.68;;
70073;SDS011;57445;51.058;3.698;2022-08-19T09:18:11;10.30;;;7.07;;
70073;SDS011;57445;51.058;3.698;2022-08-19T09:20:40;10.23;;;6.28;;
70073;SDS011;57445;51.058;3.698;2022-08-19T09:23:13;7.53;;;5.78;;
70073;SDS011;57445;51.058;3.698;2022-08-19T09:25:41;8.95;;;6.00;;
70073;SDS011;57445;51.058;3.698;2022-08-19T09:28:09;7.90;;;5.13;;
70073;SDS011;57445;51.058;3.698;2022-08-19T09:30:38;6.72;;;4.50;;
70073;SDS011;57445;51.058;3.698;2022-08-19T09:33:12;6.40;;;4.20;;
70073;SDS011;57445;51.058;3.698;2022-08-19T09:35:43;7.78;;;4.10;;
70073;SDS011;57445;51.058;3.698;2022-08-19T09:38:15;6.47;;;3.83;;
70073;SDS011;57445;51.058;3.698;2022-08-19T09:40:43;6.28;;;3.55;;
70073;SDS011;57445;51.058;3.698;2022-08-19T09:43:11;7.43;;;3.60;;
70073;SDS011;57445;51.058;3.698;2022-08-19T09:45:38;6.05;;;3.20;;
70073;SDS011;57445;51.058;3.698;2022-08-19T09:48:06;6.35;;;2.90;;
70073;SDS011;57445;51.058;3.698;2022-08-19T09:50:34;8.82;;;3.00;;
70073;SDS011;57445;51.058;3.698;2022-08-19T09:53:10;8.07;;;2.90;;
70073;SDS011;57445;51.058;3.698;2022-08-19T09:55:42;5.55;;;2.70;;
70073;SDS011;57445;51.058;3.698;2022-08-19T09:58:11;4.90;;;2.70;;
70073;SDS011;57445;51.058;3.698;2022-08-19T10:00:38;6.38;;;2.40;;
70073;SDS011;57445;51.058;3.698;2022-08-19T10:03:06;7.95;;;2.40;;
70073;SDS011;57445;51.058;3.698;2022-08-19T10:05:34;7.57;;;2.78;;
70073;SDS011;57445;51.058;3.698;2022-08-19T10:08:20;4.97;;;2.70;;
70073;SDS011;57445;51.058;3.698;2022-08-19T10:10:49;4.85;;;2.65;;
70073;SDS011;57445;51.058;3.698;2022-08-19T10:13:18;6.28;;;2.90;;
70073;SDS011;57445;51.058;3.698;2022-08-19T10:15:49;5.07;;;2.53;;
70073;SDS011;57445;51.058;3.698;2022-08-19T10:18:18;5.50;;;3.10;;
70073;SDS011;57445;51.058;3.698;2022-08-19T10:20:48;5.85;;;3.22;;
70073;SDS011;57445;51.058;3.698;2022-08-19T10:23:20;5.90;;;2.72;;
70073;SDS011;57445;51.058;3.698;2022-08-19T10:25:48;6.60;;;2.67;;
70073;SDS011;57445;51.058;3.698;2022-08-19T10:28:19;5.25;;;2.70;;
70073;SDS011;57445;51.058;3.698;2022-08-19T10:30:47;6.47;;;2.72;;
70073;SDS011;57445;51.058;3.698;2022-08-19T10:33:14;5.35;;;3.05;;
70073;SDS011;57445;51.058;3.698;2022-08-19T10:35:47;6.43;;;2.40;;
70073;SDS011;57445;51.058;3.698;2022-08-19T10:38:19;6.68;;;2.75;;
70073;SDS011;57445;51.058;3.698;2022-08-19T10:40:47;4.75;;;2.85;;
70073;SDS011;57445;51.058;3.698;2022-08-19T10:43:18;4.90;;;2.83;;
70073;SDS011;57445;51.058;3.698;2022-08-19T10:45:48;5.53;;;3.00;;
70073;SDS011;57445;51.058;3.698;2022-08-19T10:48:20;6.32;;;3.40;;
70073;SDS011;57445;51.058;3.698;2022-08-19T10:50:48;5.53;;;3.30;;
70073;SDS011;57445;51.058;3.698;2022-08-19T10:53:37;8.60;;;3.95;;
70073;SDS011;57445;51.058;3.698;2022-08-19T10:56:06;5.75;;;3.92;;
70073;SDS011;57445;51.058;3.698;2022-08-19T10:58:56;5.15;;;3.67;;
70073;SDS011;57445;51.058;3.698;2022-08-19T11:01:29;6.95;;;3.88;;
70073;SDS011;57445;51.058;3.698;2022-08-19T11:04:04;8.57;;;4.35;;
70073;SDS011;57445;51.058;3.698;2022-08-19T11:06:34;6.22;;;4.05;;
70073;SDS011;57445;51.058;3.698;2022-08-19T11:09:08;7.82;;;4.35;;
70073;SDS011;57445;51.058;3.698;2022-08-19T11:11:42;6.45;;;3.92;;
70073;SDS011;57445;51.058;3.698;2022-08-19T11:14:11;5.10;;;4.07;;
70073;SDS011;57445;51.058;3.698;2022-08-19T11:16:45;5.32;;;4.22;;
70073;SDS011;57445;51.058;3.698;2022-08-19T11:19:14;7.03;;;4.47;;
70073;SDS011;57445;51.058;3.698;2022-08-19T11:21:47;6.13;;;4.78;;
70073;SDS011;57445;51.058;3.698;2022-08-19T11:24:17;7.88;;;5.05;;
70073;SDS011;57445;51.058;3.698;2022-08-19T11:26:52;7.93;;;5.63;;
70073;SDS011;57445;51.058;3.698;2022-08-19T11:29:24;6.82;;;3.78;;
70073;SDS011;57445;51.058;3.698;2022-08-19T11:31:53;6.07;;;3.10;;
70073;SDS011;57445;51.058;3.698;2022-08-19T11:34:26;7.63;;;3.30;;
70073;SDS011;57445;51.058;3.698;2022-08-19T11:36:55;4.57;;;2.65;;
70073;SDS011;57445;51.058;3.698;2022-08-19T11:39:27;6.28;;;3.30;;
70073;SDS011;57445;51.058;3.698;2022-08-19T11:42:02;5.70;;;2.80;;
70073;SDS011;57445;51.058;3.698;2022-08-19T11:44:51;5.78;;;2.90;;
70073;SDS011;57445;51.058;3.698;2022-08-19T11:47:24;6.22;;;2.83;;
70073;SDS011;57445;51.058;3.698;2022-08-19T11:49:57;5.22;;;2.35;;
70073;SDS011;57445;51.058;3.698;2022-08-19T11:52:26;4.97;;;2.30;;
70073;SDS011;57445;51.058;3.698;2022-08-19T11:54:58;4.18;;;2.58;;
70073;SDS011;57445;51.058;3.698;2022-08-19T11:57:30;5.65;;;2.88;;
70073;SDS011;57445;51.058;3.698;2022-08-19T11:59:58;4.32;;;2.72;;
70073;SDS011;57445;51.058;3.698;2022-08-19T12:02:31;5.90;;;3.08;;
70073;SDS011;57445;51.058;3.698;2022-08-19T12:05:04;6.68;;;3.05;;
70073;SDS011;57445;51.058;3.698;2022-08-19T12:07:37;6.15;;;3.40;;
70073;SDS011;57445;51.058;3.698;2022-08-19T12:10:11;4.90;;;3.55;;
70073;SDS011;57445;51.058;3.698;2022-08-19T12:12:45;4.20;;;3.13;;
70073;SDS011;57445;51.058;3.698;2022-08-19T12:15:13;5.45;;;3.40;;
70073;SDS011;57445;51.058;3.698;2022-08-19T12:17:42;6.75;;;3.58;;
70073;SDS011;57445;51.058;3.698;2022-08-19T12:20:10;7.00;;;3.80;;
70073;SDS011;57445;51.058;3.698;2022-08-19T12:22:41;4.85;;;3.22;;
70073;SDS011;57445;51.058;3.698;2022-08-19T12:25:15;5.47;;;3.10;;
70073;SDS011;57445;51.058;3.698;2022-08-19T12:27:43;5.22;;;3.28;;
70073;SDS011;57445;51.058;3.698;2022-08-19T12:30:12;5.07;;;2.80;;
70073;SDS011;57445;51.058;3.698;2022-08-19T12:32:41;4.57;;;2.88;;
70073;SDS011;57445;51.058;3.698;2022-08-19T12:35:09;5.30;;;3.15;;
70073;SDS011;57445;51.058;3.698;2022-08-19T12:37:38;6.32;;;2.88;;
70073;SDS011;57445;51.058;3.698;2022-08-19T12:40:11;5.05;;;2.90;;
70073;SDS011;57445;51.058;3.698;2022-08-19T12:42:41;4.38;;;2.72;;
70073;SDS011;57445;51.058;3.698;2022-08-19T12:45:09;5.57;;;2.50;;
70073;SDS011;57445;51.058;3.698;2022-08-19T12:47:38;4.80;;;2.40;;
70073;SDS011;57445;51.058;3.698;2022-08-19T12:50:11;3.95;;;2.10;;
70073;SDS011;57445;51.058;3.698;2022-08-19T12:52:39;3.30;;;1.70;;
70073;SDS011;57445;51.058;3.698;2022-08-19T12:55:12;5.78;;;1.52;;
70073;SDS011;57445;51.058;3.698;2022-08-19T12:57:41;5.28;;;1.70;;
70073;SDS011;57445;51.058;3.698;2022-08-19T13:00:11;3.13;;;1.60;;
70073;SDS011;57445;51.058;3.698;2022-08-19T13:02:42;3.17;;;1.70;;
70073;SDS011;57445;51.058;3.698;2022-08-19T13:05:12;7.22;;;1.60;;
70073;SDS011;57445;51.058;3.698;2022-08-19T13:07:42;3.63;;;1.50;;
70073;SDS011;57445;51.058;3.698;2022-08-19T13:10:11;3.33;;;1.65;;
70073;SDS011;57445;51.058;3.698;2022-08-19T13:12:49;3.85;;;1.60;;
70073;SDS011;57445;51.058;3.698;2022-08-19T13:15:23;2.88;;;1.60;;
70073;SDS011;57445;51.058;3.698;2022-08-19T13:17:52;5.28;;;1.70;;
70073;SDS011;57445;51.058;3.698;2022-08-19T13:20:21;7.35;;;2.40;;
70073;SDS011;57445;51.058;3.698;2022-08-19T13:22:54;11.77;;;2.78;;
70073;SDS011;57445;51.058;3.698;2022-08-19T13:25:27;5.93;;;2.67;;
70073;SDS011;57445;51.058;3.698;2022-08-19T13:27:56;4.70;;;2.05;;
70073;SDS011;57445;51.058;3.698;2022-08-19T13:30:24;5.50;;;1.92;;
70073;SDS011;57445;51.058;3.698;2022-08-19T13:33:09;4.13;;;1.63;;
70073;SDS011;57445;51.058;3.698;2022-08-19T13:35:42;5.20;;;1.65;;
70073;SDS011;57445;51.058;3.698;2022-08-19T13:38:12;4.07;;;1.58;;
70073;SDS011;57445;51.058;3.698;2022-08-19T13:40:47;4.57;;;1.42;;
70073;SDS011;57445;51.058;3.698;2022-08-19T13:43:18;5.95;;;1.58;;
70073;SDS011;57445;51.058;3.698;2022-08-19T13:45:53;2.67;;;1.20;;
70073;SDS011;57445;51.058;3.698;2022-08-19T13:48:22;1.30;;;0.88;;
70073;SDS011;57445;51.058;3.698;2022-08-19T13:50:51;3.63;;;1.67;;
70073;SDS011;57445;51.058;3.698;2022-08-19T13:53:19;7.10;;;1.90;;
70073;SDS011;57445;51.058;3.698;2022-08-19T13:55:47;4.55;;;1.80;;
70073;SDS011;57445;51.058;3.698;2022-08-19T13:58:16;4.72;;;1.70;;
70073;SDS011;57445;51.058;3.698;2022-08-19T14:00:47;4.85;;;1.83;;
70073;SDS011;57445;51.058;3.698;2022-08-19T14:03:15;4.57;;;2.05;;
70073;SDS011;57445;51.058;3.698;2022-08-19T14:05:43;4.95;;;2.13;;
70073;SDS011;57445;51.058;3.698;2022-08-19T14:08:12;3.45;;;2.08;;
70073;SDS011;57445;51.058;3.698;2022-08-19T14:10:40;5.18;;;2.63;;
70073;SDS011;57445;51.058;3.698;2022-08-19T14:13:10;6.55;;;2.58;;
70073;SDS011;57445;51.058;3.698;2022-08-19T14:15:40;5.35;;;2.80;;
70073;SDS011;57445;51.058;3.698;2022-08-19T14:18:09;6.53;;;3.03;;
70073;SDS011;57445;51.058;3.698;2022-08-19T14:20:37;7.13;;;3.22;;
70073;SDS011;57445;51.058;3.698;2022-08-19T14:23:05;7.82;;;3.40;;
70073;SDS011;57445;51.058;3.698;2022-08-19T14:25:38;6.53;;;3.03;;
70073;SDS011;57445;51.058;3.698;2022-08-19T14:28:10;6.97;;;3.47;;
70073;SDS011;57445;51.058;3.698;2022-08-19T14:30:38;7.25;;;3.20;;
70073;SDS011;57445;51.058;3.698;2022-08-19T14:33:12;6.03;;;3.40;;
70073;SDS011;57445;51.058;3.698;2022-08-19T14:35:40;7.38;;;3.30;;
70073;SDS011;57445;51.058;3.698;2022-08-19T14:38:14;8.10;;;3.97;;
70073;SDS011;57445;51.058;3.698;2022-08-19T14:40:44;7.28;;;3.53;;
70073;SDS011;57445;51.058;3.698;2022-08-19T14:43:12;9.20;;;4.30;;
70073;SDS011;57445;51.058;3.698;2022-08-19T14:45:44;6.95;;;4.20;;
70073;SDS011;57445;51.058;3.698;2022-08-19T14:48:18;6.63;;;4.38;;
70073;SDS011;57445;51.058;3.698;2022-08-19T14:50:47;9.35;;;4.30;;
70073;SDS011;57445;51.058;3.698;2022-08-19T14:53:19;7.63;;;3.95;;
70073;SDS011;57445;51.058;3.698;2022-08-19T14:55:47;8.80;;;4.30;;
70073;SDS011;57445;51.058;3.698;2022-08-19T14:58:15;7.38;;;4.57;;
70073;SDS011;57445;51.058;3.698;2022-08-19T15:00:43;9.75;;;4.75;;